Time;durP1;ratioP1;P1;durP2;ratioP2;P2;SDS_P1;SDS_P2;PMS_P1;PMS_P2;Temp;Humidity;BMP_temperature;BMP_pressure;BME280_temperature;BME280_humidity;BME280_pressure;Samples;Min_cycle;Max_cycle;Signal;HPM_P1;HPM_P2
2022/04/27 00:00:33;;;;;;;2.58;1.40;;;;;;;;;;5000608;28;20434;-83
2022/04/27 00:02:59;;;;;;;2.33;1.40;;;;;;;;;;5000994;28;20053;-84
2022/04/27 00:05:25;;;;;;;2.78;1.50;;;;;;;;;;5017473;28;20525;-85
2022/04/27 00:07:50;;;;;;;3.13;1.30;;;;;;;;;;5000388;28;20548;-85
2022/04/27 00:10:18;;;;;;;3.25;1.58;;;;;;;;;;5017676;28;20549;-84
2022/04/27 00:12:44;;;;;;;2.13;1.40;;;;;;;;;;5000615;28;20104;-84
2022/04/27 00:15:10;;;;;;;2.40;1.40;;;;;;;;;;4999433;28;20478;-81
2022/04/27 00:17:35;;;;;;;2.40;1.40;;;;;;;;;;5016724;28;20029;-82
2022/04/27 00:20:01;;;;;;;2.40;1.60;;;;;;;;;;4999457;28;20716;-83
2022/04/27 00:22:26;;;;;;;4.68;1.60;;;;;;;;;;5016375;28;20037;-84
2022/04/27 00:24:52;;;;;;;2.65;1.42;;;;;;;;;;5015799;28;20470;-82
2022/04/27 00:27:17;;;;;;;2.95;1.60;;;;;;;;;;5015711;28;20029;-81
2022/04/27 00:29:43;;;;;;;2.17;1.60;;;;;;;;;;4998116;28;20490;-85
2022/04/27 00:32:08;;;;;;;4.05;1.92;;;;;;;;;;4999891;28;20120;-81
2022/04/27 00:34:34;;;;;;;2.97;1.80;;;;;;;;;;4999247;28;20045;-81
2022/04/27 00:36:59;;;;;;;3.30;1.95;;;;;;;;;;4967671;28;20152;-83
2022/04/27 00:39:25;;;;;;;2.50;1.70;;;;;;;;;;4999904;28;20383;-82
2022/04/27 00:41:59;;;;;;;3.50;1.63;;;;;;;;;;5006658;28;20077;-83
2022/04/27 00:44:28;;;;;;;4.55;1.80;;;;;;;;;;4983795;28;20085;-83
2022/04/27 00:46:54;;;;;;;2.83;1.50;;;;;;;;;;4998462;28;20394;-81
2022/04/27 00:49:19;;;;;;;4.68;1.90;;;;;;;;;;4981150;28;20517;-81
2022/04/27 00:51:45;;;;;;;3.15;1.70;;;;;;;;;;4996680;28;20128;-83
2022/04/27 00:54:10;;;;;;;4.25;1.90;;;;;;;;;;4996277;28;20034;-83
2022/04/27 00:56:37;;;;;;;2.63;1.73;;;;;;;;;;4995814;28;20029;-81
2022/04/27 00:59:02;;;;;;;2.38;1.80;;;;;;;;;;5000949;28;20080;-81
2022/04/27 01:01:28;;;;;;;2.15;1.67;;;;;;;;;;5000995;28;20068;-83
2022/04/27 01:03:54;;;;;;;3.00;2.30;;;;;;;;;;5016384;28;20112;-82
2022/04/27 01:06:21;;;;;;;3.75;2.00;;;;;;;;;;4981667;28;20491;-83
2022/04/27 01:08:46;;;;;;;3.45;2.10;;;;;;;;;;4999056;28;20042;-82
2022/04/27 01:11:12;;;;;;;2.88;1.80;;;;;;;;;;4982667;28;20040;-86
2022/04/27 01:13:45;;;;;;;4.55;2.22;;;;;;;;;;4983643;28;20064;-84
2022/04/27 01:16:10;;;;;;;3.22;2.25;;;;;;;;;;4982157;28;20033;-83
2022/04/27 01:18:36;;;;;;;3.55;2.15;;;;;;;;;;4982648;28;20034;-83
2022/04/27 01:21:03;;;;;;;3.63;2.10;;;;;;;;;;4998869;28;20034;-82
2022/04/27 01:23:32;;;;;;;3.00;2.10;;;;;;;;;;5015738;28;20038;-83
2022/04/27 01:26:05;;;;;;;3.83;2.25;;;;;;;;;;4982896;28;20030;-85
2022/04/27 01:28:30;;;;;;;3.08;2.05;;;;;;;;;;5001360;28;20052;-82
2022/04/27 01:31:00;;;;;;;3.50;2.30;;;;;;;;;;4983600;28;20120;-85
2022/04/27 01:33:26;;;;;;;3.40;2.40;;;;;;;;;;5000742;28;20060;-83
2022/04/27 01:35:52;;;;;;;3.78;2.40;;;;;;;;;;4983614;28;20473;-84
2022/04/27 01:38:18;;;;;;;3.65;2.30;;;;;;;;;;5000008;28;20068;-84
2022/04/27 01:40:45;;;;;;;3.35;2.10;;;;;;;;;;5005404;28;20097;-81
2022/04/27 01:43:11;;;;;;;2.95;2.30;;;;;;;;;;4997906;28;20034;-84
2022/04/27 01:45:37;;;;;;;3.28;2.30;;;;;;;;;;4996654;28;20080;-84
2022/04/27 01:48:03;;;;;;;3.83;2.17;;;;;;;;;;4980871;28;20034;-83
2022/04/27 01:50:29;;;;;;;4.57;2.20;;;;;;;;;;5014486;28;20116;-83
2022/04/27 01:55:39;;;;;;;3.20;2.20;;;;;;;;;;4998441;28;20039;-82
2022/04/27 01:58:05;;;;;;;3.50;2.00;;;;;;;;;;4996836;28;20048;-83
2022/04/27 02:00:31;;;;;;;4.88;2.35;;;;;;;;;;4980133;28;20406;-82
2022/04/27 02:02:57;;;;;;;3.47;2.08;;;;;;;;;;4980274;28;20095;-81
2022/04/27 02:05:24;;;;;;;4.15;2.67;;;;;;;;;;4979551;28;20026;-82
2022/04/27 02:07:49;;;;;;;4.65;2.40;;;;;;;;;;5012473;28;20382;-83
2022/04/27 02:10:15;;;;;;;4.20;2.33;;;;;;;;;;4979488;28;20026;-81
2022/04/27 02:12:42;;;;;;;2.92;2.25;;;;;;;;;;5001283;28;20041;-83
2022/04/27 02:15:15;;;;;;;4.38;2.75;;;;;;;;;;4985875;28;20120;-81
2022/04/27 02:17:42;;;;;;;5.00;2.78;;;;;;;;;;5002459;28;20257;-83
2022/04/27 02:20:09;;;;;;;4.22;2.30;;;;;;;;;;5002185;28;20075;-85
2022/04/27 02:22:34;;;;;;;4.63;2.40;;;;;;;;;;4970437;28;20030;-84
2022/04/27 02:25:01;;;;;;;3.85;2.70;;;;;;;;;;4968898;28;20033;-84
2022/04/27 02:27:27;;;;;;;3.65;2.45;;;;;;;;;;4986647;28;20041;-85
2022/04/27 02:29:53;;;;;;;3.30;2.55;;;;;;;;;;5002896;28;20030;-83
2022/04/27 02:32:23;;;;;;;3.92;2.63;;;;;;;;;;4972099;28;20046;-83
2022/04/27 02:34:51;;;;;;;4.03;2.70;;;;;;;;;;4986150;28;20338;-84
2022/04/27 02:37:17;;;;;;;3.83;2.67;;;;;;;;;;4986035;28;20106;-84
2022/04/27 02:39:45;;;;;;;5.43;2.58;;;;;;;;;;4992882;28;20061;-83
2022/04/27 02:42:13;;;;;;;3.22;2.40;;;;;;;;;;4984546;28;20057;-84
2022/04/27 02:44:39;;;;;;;3.78;2.60;;;;;;;;;;4983271;28;20034;-83
2022/04/27 02:47:05;;;;;;;3.95;2.63;;;;;;;;;;5000265;28;20026;-82
2022/04/27 02:52:14;;;;;;;5.13;2.30;;;;;;;;;;5002490;28;20037;-83
2022/04/27 02:54:58;;;;;;;4.03;2.22;;;;;;;;;;5002006;28;20052;-82
2022/04/27 02:57:24;;;;;;;4.22;2.58;;;;;;;;;;4984207;28;20044;-83
2022/04/27 02:59:51;;;;;;;3.50;2.33;;;;;;;;;;4999966;28;20037;-82
2022/04/27 03:02:17;;;;;;;3.83;2.40;;;;;;;;;;5000148;28;20033;-82
2022/04/27 03:04:43;;;;;;;3.67;2.30;;;;;;;;;;4999405;28;20030;-82
2022/04/27 03:07:09;;;;;;;2.90;2.15;;;;;;;;;;4983490;28;20041;-83
2022/04/27 03:09:41;;;;;;;3.20;2.15;;;;;;;;;;4984458;28;20038;-82
2022/04/27 03:12:07;;;;;;;4.97;2.28;;;;;;;;;;4999326;28;20618;-82
2022/04/27 03:14:37;;;;;;;3.58;2.22;;;;;;;;;;4983390;28;20030;-83
2022/04/27 03:17:03;;;;;;;4.05;2.22;;;;;;;;;;4999422;28;20140;-83
2022/04/27 03:19:29;;;;;;;4.47;2.20;;;;;;;;;;4999437;28;20042;-83
2022/04/27 03:21:54;;;;;;;4.05;2.25;;;;;;;;;;4982599;28;20483;-82
2022/04/27 03:24:21;;;;;;;3.85;2.20;;;;;;;;;;4987016;28;20030;-83
2022/04/27 03:26:47;;;;;;;2.97;2.00;;;;;;;;;;4985970;28;20030;-83
2022/04/27 03:29:17;;;;;;;5.30;2.13;;;;;;;;;;4985587;28;20045;-82
2022/04/27 03:31:44;;;;;;;2.65;2.10;;;;;;;;;;4986652;28;20038;-81
2022/04/27 03:34:10;;;;;;;3.15;2.10;;;;;;;;;;5001490;28;20044;-82
2022/04/27 03:36:37;;;;;;;4.15;2.20;;;;;;;;;;5002649;28;20057;-81
2022/04/27 03:39:03;;;;;;;3.55;2.45;;;;;;;;;;5011267;28;20045;-82
2022/04/27 03:41:29;;;;;;;4.07;2.45;;;;;;;;;;5004224;28;20017;-82
2022/04/27 03:43:57;;;;;;;3.33;2.20;;;;;;;;;;5003321;28;20514;-79
2022/04/27 03:46:22;;;;;;;4.18;2.50;;;;;;;;;;4987087;28;20037;-84
2022/04/27 03:48:48;;;;;;;3.85;2.10;;;;;;;;;;5002921;28;20144;-83
2022/04/27 03:51:14;;;;;;;5.85;2.90;;;;;;;;;;4986251;28;20034;-85
2022/04/27 03:53:44;;;;;;;4.68;2.55;;;;;;;;;;5001856;28;20045;-84
2022/04/27 03:56:10;;;;;;;4.35;2.65;;;;;;;;;;5001223;28;20101;-85
2022/04/27 03:58:37;;;;;;;5.72;3.15;;;;;;;;;;4986174;28;20038;-84
2022/04/27 04:01:03;;;;;;;4.82;2.83;;;;;;;;;;5001255;28;20087;-84
2022/04/27 04:03:28;;;;;;;5.18;2.83;;;;;;;;;;5002229;28;20034;-84
2022/04/27 04:05:54;;;;;;;5.28;2.55;;;;;;;;;;4984602;28;20094;-82
2022/04/27 04:08:21;;;;;;;4.53;2.63;;;;;;;;;;4986578;28;20034;-84
2022/04/27 04:10:49;;;;;;;6.28;3.63;;;;;;;;;;5002496;28;20129;-82
2022/04/27 04:13:15;;;;;;;5.82;3.47;;;;;;;;;;4986815;28;20563;-85
2022/04/27 04:15:50;;;;;;;5.25;2.92;;;;;;;;;;5003356;28;20034;-84
2022/04/27 04:18:25;;;;;;;5.72;3.50;;;;;;;;;;5003624;28;20049;-83
2022/04/27 04:21:03;;;;;;;4.47;2.95;;;;;;;;;;5004442;28;20049;-84
2022/04/27 04:23:55;;;;;;;7.55;3.05;;;;;;;;;;5017036;28;20038;-79
2022/04/27 04:29:05;;;;;;;5.72;3.60;;;;;;;;;;4976388;28;20038;-83
2022/04/27 04:31:31;;;;;;;6.05;3.15;;;;;;;;;;4975775;28;20019;-82
2022/04/27 04:34:26;;;;;;;4.28;2.92;;;;;;;;;;4963050;28;20407;-83
2022/04/27 04:36:51;;;;;;;4.47;3.00;;;;;;;;;;4975285;28;20030;-83
2022/04/27 04:39:17;;;;;;;5.40;3.03;;;;;;;;;;4974974;28;20193;-82
2022/04/27 04:41:45;;;;;;;4.35;2.92;;;;;;;;;;4976027;28;20038;-82
2022/04/27 04:44:11;;;;;;;7.43;3.92;;;;;;;;;;4975729;28;20034;-82
2022/04/27 04:46:55;;;;;;;7.07;4.20;;;;;;;;;;4975861;28;20054;-82
2022/04/27 04:49:43;;;;;;;6.40;4.10;;;;;;;;;;4962479;28;20034;-82
2022/04/27 04:52:28;;;;;;;6.57;3.00;;;;;;;;;;4955733;28;20503;-82
2022/04/27 04:55:12;;;;;;;5.63;3.15;;;;;;;;;;4975557;28;20065;-82
2022/04/27 04:58:13;;;;;;;11.20;4.88;;;;;;;;;;4936099;29;20044;-82
2022/04/27 05:00:51;;;;;;;9.48;4.75;;;;;;;;;;4968026;28;20069;-82
2022/04/27 05:03:25;;;;;;;8.60;4.15;;;;;;;;;;4975054;28;20089;-82
2022/04/27 05:06:08;;;;;;;7.32;3.70;;;;;;;;;;4975173;28;20125;-82
2022/04/27 05:08:45;;;;;;;5.85;3.65;;;;;;;;;;4975230;28;20411;-82
2022/04/27 05:11:33;;;;;;;7.65;4.30;;;;;;;;;;4961668;28;20042;-82
2022/04/27 05:14:11;;;;;;;6.20;3.63;;;;;;;;;;4974581;28;20524;-82
2022/04/27 05:16:55;;;;;;;5.53;3.25;;;;;;;;;;4976198;28;20050;-82
2022/04/27 05:19:41;;;;;;;5.95;3.00;;;;;;;;;;4976295;28;20121;-82
2022/04/27 05:22:18;;;;;;;7.13;3.20;;;;;;;;;;4960911;28;20122;-82
2022/04/27 05:25:16;;;;;;;9.05;3.78;;;;;;;;;;4953126;28;20066;-81
2022/04/27 05:28:04;;;;;;;7.25;3.80;;;;;;;;;;4962289;28;20463;-82
2022/04/27 05:33:57;;;;;;;6.70;3.50;;;;;;;;;;4973021;28;20047;-81
2022/04/27 05:36:55;;;;;;;7.22;3.80;;;;;;;;;;4982787;28;20078;-82
2022/04/27 05:39:39;;;;;;;7.70;3.95;;;;;;;;;;4976699;28;20526;-82
2022/04/27 05:42:14;;;;;;;8.70;4.00;;;;;;;;;;4960399;28;20031;-82
2022/04/27 05:44:53;;;;;;;5.85;3.60;;;;;;;;;;4974644;28;20100;-82
2022/04/27 05:47:25;;;;;;;5.45;3.35;;;;;;;;;;4975325;28;20061;-82
2022/04/27 05:50:09;;;;;;;4.40;3.30;;;;;;;;;;4980887;28;20050;-82
2022/04/27 05:52:58;;;;;;;5.90;3.30;;;;;;;;;;4979132;28;20026;-82
2022/04/27 05:56:02;;;;;;;8.30;3.40;;;;;;;;;;4560797;29;7319459;-83
2022/04/27 05:58:47;;;;;;;6.18;3.30;;;;;;;;;;4958632;29;20555;-83
2022/04/27 06:01:19;;;;;;;;;;;;;;;;;;4975325;28;20124;-83
2022/04/27 06:03:55;;;;;;;5.20;3.35;;;;;;;;;;5017706;28;19992;-82
2022/04/27 06:06:23;;;;;;;6.57;3.03;;;;;;;;;;5001032;28;20030;-83
2022/04/27 06:08:49;;;;;;;5.80;3.08;;;;;;;;;;5017969;28;20038;-83
2022/04/27 06:11:20;;;;;;;4.40;2.97;;;;;;;;;;5001961;28;20044;-83
2022/04/27 06:14:04;;;;;;;6.05;3.05;;;;;;;;;;5006151;28;20061;-82
2022/04/27 06:16:43;;;;;;;4.50;3.30;;;;;;;;;;4985731;28;20056;-82
2022/04/27 06:19:13;;;;;;;6.15;3.55;;;;;;;;;;4997511;28;20117;-83
2022/04/27 06:21:39;;;;;;;6.10;3.88;;;;;;;;;;4998449;28;20054;-84
2022/04/27 06:24:06;;;;;;;5.07;3.15;;;;;;;;;;4997710;28;20062;-84
2022/04/27 06:26:33;;;;;;;5.68;3.10;;;;;;;;;;4984851;28;20026;-83
2022/04/27 06:29:00;;;;;;;5.53;3.03;;;;;;;;;;5006270;28;20073;-83
2022/04/27 06:31:26;;;;;;;6.95;3.42;;;;;;;;;;4982714;28;20030;-82
2022/04/27 06:33:55;;;;;;;8.50;3.92;;;;;;;;;;5000699;28;20038;-82
2022/04/27 06:36:21;;;;;;;5.55;3.67;;;;;;;;;;5006627;28;20038;-82
2022/04/27 06:38:46;;;;;;;7.53;4.10;;;;;;;;;;5028371;28;20030;-83
2022/04/27 06:41:20;;;;;;;;;;;;;;;;;;5002742;28;20458;-82
2022/04/27 06:44:04;;;;;;;5.60;3.30;;;;;;;;;;5018271;28;19924;-83
2022/04/27 06:46:48;;;;;;;5.00;3.10;;;;;;;;;;5018354;28;20525;-83
2022/04/27 06:49:31;;;;;;;;;;;;;;;;;;5032264;28;20048;-82
2022/04/27 06:52:15;;;;;;;9.10;3.20;;;;;;;;;;5018516;28;19920;-83
2022/04/27 06:54:59;;;;;;;5.13;2.97;;;;;;;;;;4993682;28;20045;-83
2022/04/27 06:57:54;;;;;;;7.50;3.25;;;;;;;;;;4978446;28;20130;-83
2022/04/27 07:00:20;;;;;;;4.97;3.17;;;;;;;;;;5013006;28;20066;-83
2022/04/27 07:02:45;;;;;;;6.70;3.58;;;;;;;;;;4984618;28;20034;-82
2022/04/27 07:05:17;;;;;;;5.93;3.40;;;;;;;;;;4996573;28;20113;-82
2022/04/27 07:07:45;;;;;;;5.88;3.40;;;;;;;;;;4965823;28;20034;-83
2022/04/27 07:10:11;;;;;;;5.93;3.67;;;;;;;;;;4996895;28;20037;-82
2022/04/27 07:12:36;;;;;;;5.38;3.08;;;;;;;;;;5016474;28;20117;-86
2022/04/27 07:15:02;;;;;;;5.05;3.30;;;;;;;;;;5018771;28;20414;-85
2022/04/27 07:17:28;;;;;;;5.40;3.38;;;;;;;;;;5019435;28;20069;-82
2022/04/27 07:19:53;;;;;;;3.95;2.72;;;;;;;;;;5016449;28;20050;-83
2022/04/27 07:22:19;;;;;;;5.70;3.40;;;;;;;;;;5016630;28;20034;-82
2022/04/27 07:24:44;;;;;;;6.45;3.45;;;;;;;;;;5014710;28;20090;-83
2022/04/27 07:27:10;;;;;;;5.47;3.40;;;;;;;;;;4999298;28;20089;-83
2022/04/27 07:29:35;;;;;;;4.90;3.33;;;;;;;;;;5014718;28;20406;-82
2022/04/27 07:32:01;;;;;;;7.10;3.70;;;;;;;;;;4999359;28;20064;-82
2022/04/27 07:34:26;;;;;;;6.28;3.50;;;;;;;;;;4998721;28;20107;-83
2022/04/27 07:36:52;;;;;;;5.13;3.63;;;;;;;;;;5017181;28;20038;-83
2022/04/27 07:39:17;;;;;;;5.10;3.60;;;;;;;;;;5015801;28;20049;-84
2022/04/27 07:41:45;;;;;;;4.00;2.85;;;;;;;;;;5016959;28;20061;-84
2022/04/27 07:44:14;;;;;;;4.90;3.25;;;;;;;;;;5014858;28;20046;-84
2022/04/27 07:46:39;;;;;;;7.07;3.70;;;;;;;;;;4998753;28;20030;-83
2022/04/27 07:49:04;;;;;;;7.38;3.80;;;;;;;;;;4998858;28;20064;-83
2022/04/27 07:51:30;;;;;;;6.63;3.72;;;;;;;;;;5016484;28;20069;-83
2022/04/27 07:53:55;;;;;;;5.43;3.25;;;;;;;;;;5015834;28;20069;-83
2022/04/27 07:56:21;;;;;;;6.32;3.53;;;;;;;;;;4998823;28;20034;-83
2022/04/27 07:58:46;;;;;;;6.70;2.95;;;;;;;;;;5015447;28;20112;-84
2022/04/27 08:01:12;;;;;;;4.88;3.10;;;;;;;;;;4998900;28;20510;-83
2022/04/27 08:03:37;;;;;;;4.20;2.88;;;;;;;;;;5014759;28;20376;-84
2022/04/27 08:06:04;;;;;;;4.78;2.90;;;;;;;;;;5003690;28;20080;-84
2022/04/27 08:08:30;;;;;;;5.40;2.88;;;;;;;;;;4995343;28;20034;-84
2022/04/27 08:10:56;;;;;;;4.00;2.50;;;;;;;;;;4996248;28;20026;-84
2022/04/27 08:13:21;;;;;;;4.15;2.70;;;;;;;;;;4996624;28;20398;-83
2022/04/27 08:15:47;;;;;;;4.97;3.00;;;;;;;;;;4994346;28;20044;-84
2022/04/27 08:18:12;;;;;;;5.38;3.00;;;;;;;;;;4996445;28;20106;-84
2022/04/27 08:23:25;;;;;;;3.78;2.70;;;;;;;;;;4962627;28;20129;-84
2022/04/27 08:25:51;;;;;;;3.83;2.50;;;;;;;;;;4976122;28;20089;-83
2022/04/27 08:28:17;;;;;;;3.40;2.30;;;;;;;;;;4959630;28;20510;-84
2022/04/27 08:30:44;;;;;;;6.25;2.15;;;;;;;;;;4991654;28;20027;-83
2022/04/27 08:33:09;;;;;;;3.95;2.38;;;;;;;;;;4981847;28;20030;-84
2022/04/27 08:35:36;;;;;;;5.95;2.63;;;;;;;;;;5004524;28;20034;-84
2022/04/27 08:38:02;;;;;;;3.17;2.17;;;;;;;;;;5007699;28;20045;-85
2022/04/27 08:40:28;;;;;;;4.55;2.08;;;;;;;;;;4994851;28;20080;-85
2022/04/27 08:42:53;;;;;;;4.07;2.08;;;;;;;;;;4978044;28;20069;-84
2022/04/27 08:45:19;;;;;;;2.75;2.00;;;;;;;;;;4993700;28;20034;-84
2022/04/27 08:47:48;;;;;;;3.78;2.20;;;;;;;;;;4995998;28;20038;-84
2022/04/27 08:50:21;;;;;;;2.95;2.00;;;;;;;;;;4994107;28;20042;-84
2022/04/27 08:52:47;;;;;;;2.83;1.98;;;;;;;;;;4994288;28;20038;-84
2022/04/27 08:55:13;;;;;;;3.70;2.47;;;;;;;;;;4994620;28;20030;-82
2022/04/27 08:57:38;;;;;;;5.05;3.75;;;;;;;;;;4994116;28;20034;-83
2022/04/27 09:00:08;;;;;;;4.07;2.42;;;;;;;;;;4977864;28;20069;-82
2022/04/27 09:02:33;;;;;;;4.13;2.53;;;;;;;;;;4977671;28;20049;-82
2022/04/27 09:05:05;;;;;;;3.50;2.50;;;;;;;;;;4994247;28;20129;-83
2022/04/27 09:07:43;;;;;;;4.38;2.75;;;;;;;;;;4994001;28;20034;-85
2022/04/27 09:10:14;;;;;;;5.35;2.55;;;;;;;;;;4993843;28;20403;-84
2022/04/27 09:12:47;;;;;;;4.07;2.88;;;;;;;;;;4995272;28;20395;-84
2022/04/27 09:15:13;;;;;;;4.68;2.80;;;;;;;;;;4993662;28;20038;-84
2022/04/27 09:23:40;;;;;;;3.75;2.60;;;;;;;;;;4980520;28;20077;-84
2022/04/27 09:26:27;;;;;;;4.03;2.90;;;;;;;;;;4994080;28;20026;-83
2022/04/27 09:28:53;;;;;;;3.78;2.70;;;;;;;;;;4979200;28;20033;-84
2022/04/27 09:31:29;;;;;;;4.50;3.00;;;;;;;;;;4994765;28;20034;-84
2022/04/27 09:34:02;;;;;;;3.92;2.80;;;;;;;;;;4993148;28;20042;-82
2022/04/27 09:36:28;;;;;;;3.75;2.92;;;;;;;;;;4978213;28;20031;-83
2022/04/27 09:38:55;;;;;;;5.47;2.90;;;;;;;;;;4995842;28;20380;-85
2022/04/27 09:41:45;;;;;;;3.65;2.55;;;;;;;;;;4995624;28;20038;-84
2022/04/27 09:44:32;;;;;;;4.30;2.63;;;;;;;;;;4989991;28;20102;-84
2022/04/27 09:46:58;;;;;;;3.60;2.70;;;;;;;;;;4979615;28;20030;-84
2022/04/27 09:49:24;;;;;;;3.83;2.90;;;;;;;;;;4981926;28;20026;-84
2022/04/27 09:51:53;;;;;;;3.67;2.80;;;;;;;;;;4979070;28;20399;-84
2022/04/27 09:54:23;;;;;;;3.92;2.40;;;;;;;;;;4994204;28;20045;-84
2022/04/27 09:56:54;;;;;;;3.88;2.65;;;;;;;;;;4995290;28;20121;-85
2022/04/27 09:59:27;;;;;;;4.80;3.80;;;;;;;;;;4995872;28;20037;-84
2022/04/27 10:01:58;;;;;;;4.47;2.83;;;;;;;;;;4992213;28;20050;-84
2022/04/27 10:04:25;;;;;;;5.50;2.58;;;;;;;;;;4976804;28;20042;-84
2022/04/27 10:06:51;;;;;;;3.28;2.53;;;;;;;;;;4978174;28;20395;-83
2022/04/27 10:09:16;;;;;;;4.72;2.50;;;;;;;;;;4977505;28;20034;-83
2022/04/27 10:11:42;;;;;;;4.57;3.15;;;;;;;;;;5009626;28;20041;-82
2022/04/27 10:14:07;;;;;;;3.58;2.80;;;;;;;;;;5007346;28;20507;-81
2022/04/27 10:16:33;;;;;;;4.43;3.00;;;;;;;;;;5007238;28;20587;-82
2022/04/27 10:18:58;;;;;;;4.22;3.10;;;;;;;;;;4994877;28;20379;-82
2022/04/27 10:21:57;;;;;;;4.93;3.10;;;;;;;;;;4993467;28;20125;-82
2022/04/27 10:24:37;;;;;;;4.53;2.90;;;;;;;;;;4991674;28;20048;-82
2022/04/27 10:27:14;;;;;;;4.78;3.40;;;;;;;;;;5033768;23;20049;-84
2022/04/27 10:29:40;;;;;;;5.13;3.40;;;;;;;;;;5030502;28;20459;-84
2022/04/27 10:32:05;;;;;;;4.70;3.22;;;;;;;;;;5041371;28;20038;-83
2022/04/27 10:34:32;;;;;;;5.50;3.45;;;;;;;;;;5040512;28;20037;-83
2022/04/27 10:36:58;;;;;;;4.82;3.00;;;;;;;;;;4999885;28;20085;-84
2022/04/27 10:39:27;;;;;;;5.75;2.85;;;;;;;;;;5015353;28;20570;-83
2022/04/27 10:42:15;;;;;;;4.43;3.10;;;;;;;;;;5016118;28;20517;-83
2022/04/27 10:44:47;;;;;;;3.95;2.97;;;;;;;;;;5015895;28;20034;-83
2022/04/27 10:47:18;;;;;;;3.72;2.70;;;;;;;;;;5014998;28;20100;-84
2022/04/27 10:49:46;;;;;;;3.30;2.70;;;;;;;;;;5030530;28;20044;-83
2022/04/27 10:52:12;;;;;;;5.20;2.50;;;;;;;;;;5009163;28;20027;-84
2022/04/27 10:54:38;;;;;;;4.30;2.80;;;;;;;;;;4978159;28;20042;-85
2022/04/27 10:57:19;;;;;;;4.93;2.85;;;;;;;;;;4977387;28;20031;-84
2022/04/27 10:59:45;;;;;;;11.45;5.82;;;;;;;;;;5013958;28;20038;-84
2022/04/27 11:02:35;;;;;;;3.70;2.72;;;;;;;;;;5005386;28;20056;-86
2022/04/27 11:05:21;;;;;;;6.50;4.03;;;;;;;;;;5023617;28;20422;-86
2022/04/27 11:08:09;;;;;;;3.25;2.35;;;;;;;;;;5022048;28;20510;-87
2022/04/27 11:10:36;;;;;;;4.68;2.72;;;;;;;;;;5012126;28;20062;-85
2022/04/27 11:13:02;;;;;;;3.58;2.80;;;;;;;;;;5000033;28;20030;-84
2022/04/27 11:15:27;;;;;;;3.05;2.30;;;;;;;;;;4979271;28;20042;-83
2022/04/27 11:18:03;;;;;;;4.85;2.60;;;;;;;;;;4981424;28;20022;-83
2022/04/27 11:20:28;;;;;;;4.35;2.50;;;;;;;;;;4965884;28;20088;-83
2022/04/27 11:22:54;;;;;;;4.15;2.50;;;;;;;;;;4998029;28;20034;-82
2022/04/27 11:25:30;;;;;;;5.18;2.90;;;;;;;;;;4996062;28;20045;-81
2022/04/27 11:27:57;;;;;;;2.90;2.47;;;;;;;;;;4964107;28;20092;-82
2022/04/27 11:30:23;;;;;;;4.13;2.70;;;;;;;;;;5004221;28;20053;-83
2022/04/27 11:32:49;;;;;;;5.22;2.60;;;;;;;;;;4965628;28;20037;-84
2022/04/27 11:35:15;;;;;;;3.47;2.50;;;;;;;;;;4963710;28;20097;-83
2022/04/27 11:37:40;;;;;;;3.47;2.80;;;;;;;;;;4997970;28;20049;-84
2022/04/27 11:40:19;;;;;;;4.78;2.70;;;;;;;;;;4947179;28;20462;-83
2022/04/27 11:42:46;;;;;;;4.05;2.60;;;;;;;;;;5006101;28;20042;-85
2022/04/27 11:45:12;;;;;;;4.63;3.13;;;;;;;;;;4981950;28;20089;-84
2022/04/27 11:47:37;;;;;;;5.32;3.75;;;;;;;;;;4982001;28;20030;-83
2022/04/27 11:50:05;;;;;;;4.53;3.35;;;;;;;;;;4981432;28;20081;-83
2022/04/27 11:52:31;;;;;;;4.00;3.13;;;;;;;;;;4965066;28;20101;-84
2022/04/27 11:55:01;;;;;;;4.50;3.30;;;;;;;;;;4980505;28;20065;-84
2022/04/27 11:57:26;;;;;;;6.72;3.50;;;;;;;;;;4980836;28;20038;-82
2022/04/27 11:59:52;;;;;;;4.43;3.17;;;;;;;;;;4997167;28;20038;-85
2022/04/27 12:02:22;;;;;;;4.50;3.47;;;;;;;;;;4997065;28;20041;-84
2022/04/27 12:04:49;;;;;;;4.60;3.60;;;;;;;;;;4998212;28;20450;-83
2022/04/27 12:07:15;;;;;;;6.22;4.30;;;;;;;;;;4981148;28;20084;-86
2022/04/27 12:09:40;;;;;;;5.65;3.83;;;;;;;;;;4965433;28;20133;-86
2022/04/27 12:12:13;;;;;;;7.28;3.95;;;;;;;;;;4998603;28;20105;-81
2022/04/27 12:14:38;;;;;;;4.65;3.35;;;;;;;;;;4964248;28;20040;-82
2022/04/27 12:17:06;;;;;;;6.25;4.25;;;;;;;;;;4980537;28;20038;-83
2022/04/27 12:19:33;;;;;;;5.40;3.90;;;;;;;;;;4980682;28;20042;-84
2022/04/27 12:22:12;;;;;;;4.38;3.30;;;;;;;;;;4964217;28;20089;-82
2022/04/27 12:24:44;;;;;;;6.05;3.78;;;;;;;;;;4995731;28;20077;-83
2022/04/27 12:27:19;;;;;;;4.50;3.35;;;;;;;;;;4979255;28;20070;-82
2022/04/27 12:29:46;;;;;;;4.30;3.25;;;;;;;;;;4987162;28;20038;-83
2022/04/27 12:32:11;;;;;;;4.43;3.45;;;;;;;;;;4994887;28;20038;-83
2022/04/27 12:37:32;;;;;;;5.00;3.70;;;;;;;;;;4993569;28;20035;-84
2022/04/27 12:40:13;;;;;;;4.93;3.83;;;;;;;;;;4995806;28;20041;-83
2022/04/27 12:43:16;;;;;;;5.97;4.30;;;;;;;;;;5016789;28;20037;-82
2022/04/27 12:46:02;;;;;;;10.02;4.30;;;;;;;;;;5013173;28;20172;-84
2022/04/27 12:48:29;;;;;;;5.93;4.45;;;;;;;;;;5011928;28;20033;-84
2022/04/27 12:50:54;;;;;;;6.63;4.57;;;;;;;;;;5018158;28;20034;-86
2022/04/27 12:53:20;;;;;;;5.60;4.10;;;;;;;;;;5018913;28;20095;-83
2022/04/27 12:55:59;;;;;;;7.13;4.60;;;;;;;;;;5014241;28;20124;-84
2022/04/27 12:58:24;;;;;;;7.63;5.28;;;;;;;;;;4999612;28;20080;-85
2022/04/27 13:00:51;;;;;;;7.18;5.43;;;;;;;;;;4998264;28;20087;-84
2022/04/27 13:03:16;;;;;;;6.38;4.70;;;;;;;;;;4998668;28;20057;-83
2022/04/27 13:05:42;;;;;;;6.78;5.55;;;;;;;;;;4981935;28;20084;-84
2022/04/27 13:08:08;;;;;;;6.53;5.15;;;;;;;;;;4999201;28;20091;-83
2022/04/27 13:13:18;;;;;;;9.00;5.47;;;;;;;;;;5016964;28;20042;-82
2022/04/27 13:15:45;;;;;;;7.43;5.10;;;;;;;;;;5016754;28;20037;-82
2022/04/27 13:18:13;;;;;;;7.78;5.60;;;;;;;;;;5018588;28;20058;-83
2022/04/27 13:20:39;;;;;;;8.88;5.43;;;;;;;;;;5001932;28;20125;-82
2022/04/27 13:23:05;;;;;;;8.15;6.05;;;;;;;;;;5018918;28;20091;-81
2022/04/27 13:25:31;;;;;;;7.32;5.50;;;;;;;;;;5016782;28;20034;-83
2022/04/27 13:27:56;;;;;;;7.22;4.90;;;;;;;;;;5022413;28;20037;-82
2022/04/27 13:30:22;;;;;;;7.13;4.82;;;;;;;;;;5015591;28;20040;-84
2022/04/27 13:32:49;;;;;;;9.20;6.10;;;;;;;;;;4998565;28;20045;-83
2022/04/27 13:35:14;;;;;;;7.90;5.28;;;;;;;;;;5014164;28;20372;-84
2022/04/27 13:37:40;;;;;;;7.15;5.40;;;;;;;;;;4998146;28;20509;-83
2022/04/27 13:40:06;;;;;;;7.88;5.63;;;;;;;;;;5020969;28;20022;-81
2022/04/27 13:42:31;;;;;;;8.73;6.38;;;;;;;;;;5023405;28;20559;-83
2022/04/27 13:44:57;;;;;;;7.82;5.30;;;;;;;;;;5018142;28;20072;-85
2022/04/27 13:47:23;;;;;;;8.20;5.10;;;;;;;;;;5002901;28;20041;-84
2022/04/27 13:49:48;;;;;;;7.18;5.18;;;;;;;;;;5021760;28;20064;-85
2022/04/27 13:52:13;;;;;;;7.15;5.63;;;;;;;;;;5015557;28;20449;-82
2022/04/27 13:54:39;;;;;;;9.77;5.40;;;;;;;;;;5012090;28;20057;-82
2022/04/27 13:57:05;;;;;;;7.10;5.50;;;;;;;;;;5013350;28;20084;-81
2022/04/27 13:59:30;;;;;;;8.25;5.75;;;;;;;;;;4997926;28;20061;-83
2022/04/27 14:01:56;;;;;;;8.35;6.43;;;;;;;;;;5020404;28;20091;-84
2022/04/27 14:04:21;;;;;;;8.52;6.10;;;;;;;;;;4979130;28;20091;-82
2022/04/27 14:06:47;;;;;;;7.78;6.00;;;;;;;;;;4998891;28;20028;-84
2022/04/27 14:09:12;;;;;;;9.18;5.70;;;;;;;;;;5016894;28;20379;-83
2022/04/27 14:14:22;;;;;;;8.13;5.90;;;;;;;;;;5004235;28;20037;-83
2022/04/27 14:19:33;;;;;;;7.50;5.82;;;;;;;;;;5019230;28;20441;-83
2022/04/27 14:21:58;;;;;;;6.82;5.35;;;;;;;;;;5020349;28;20104;-85
2022/04/27 14:24:24;;;;;;;7.90;5.93;;;;;;;;;;5004613;28;20504;-84
2022/04/27 14:26:49;;;;;;;8.98;6.30;;;;;;;;;;5007188;28;20062;-83
2022/04/27 14:29:15;;;;;;;9.15;6.47;;;;;;;;;;5019406;28;20188;-82
2022/04/27 14:31:40;;;;;;;10.73;6.10;;;;;;;;;;5017444;28;20128;-83
2022/04/27 14:34:06;;;;;;;8.35;6.00;;;;;;;;;;4984910;28;20152;-84
2022/04/27 14:36:31;;;;;;;10.52;6.15;;;;;;;;;;5018271;28;20053;-84
2022/04/27 14:38:58;;;;;;;9.82;6.43;;;;;;;;;;5017768;28;20045;-85
2022/04/27 14:41:23;;;;;;;11.65;6.60;;;;;;;;;;5018223;28;20042;-83
2022/04/27 14:43:49;;;;;;;7.68;5.90;;;;;;;;;;5001141;28;20049;-84
2022/04/27 14:46:14;;;;;;;6.60;5.20;;;;;;;;;;5017292;28;20030;-83
2022/04/27 14:48:42;;;;;;;8.35;5.90;;;;;;;;;;5016898;28;20124;-83
2022/04/27 14:51:07;;;;;;;9.20;6.30;;;;;;;;;;4986563;28;20486;-82
2022/04/27 14:53:33;;;;;;;7.82;6.30;;;;;;;;;;4986848;28;20034;-84
2022/04/27 14:55:59;;;;;;;9.07;6.50;;;;;;;;;;5019130;28;20038;-82
2022/04/27 14:58:25;;;;;;;8.65;5.82;;;;;;;;;;5000246;28;20045;-83
2022/04/27 15:00:52;;;;;;;10.48;7.88;;;;;;;;;;4984128;28;20417;-82
2022/04/27 15:03:17;;;;;;;10.60;6.50;;;;;;;;;;4999686;28;20045;-83
2022/04/27 15:05:43;;;;;;;11.30;6.03;;;;;;;;;;5015647;28;20115;-82
2022/04/27 15:08:08;;;;;;;8.35;5.90;;;;;;;;;;5016191;28;20093;-82
2022/04/27 15:10:34;;;;;;;9.65;6.18;;;;;;;;;;5026339;28;20078;-82
2022/04/27 15:13:00;;;;;;;7.50;5.10;;;;;;;;;;5017307;28;20391;-82
2022/04/27 15:15:26;;;;;;;7.78;5.07;;;;;;;;;;5000260;28;20040;-83
2022/04/27 15:17:51;;;;;;;8.35;5.97;;;;;;;;;;4984303;28;20064;-84
2022/04/27 15:23:00;;;;;;;;;;;;;;;;;;5025577;28;20026;-84
2022/04/27 15:25:29;;;;;;;8.43;5.15;;;;;;;;;;5017580;28;19996;-82
2022/04/27 15:27:54;;;;;;;7.32;4.75;;;;;;;;;;5001518;28;20095;-83
2022/04/27 15:30:24;;;;;;;6.30;4.90;;;;;;;;;;5019083;28;20069;-81